Time;durP1;ratioP1;P1;durP2;ratioP2;P2;SDS_P1;SDS_P2;PMS_P1;PMS_P2;Temp;Humidity;BMP_temperature;BMP_pressure;BME280_temperature;BME280_humidity;BME280_pressure;Samples;Min_cycle;Max_cycle;Signal;HPM_P1;HPM_P2
2021/12/09 00:00:59;;;;;;;35.30;18.45;;;;;;;;;;5033874;28;20394;-71
2021/12/09 00:03:27;;;;;;;32.05;17.20;;;;;;;;;;5032197;28;20025;-72
2021/12/09 00:05:55;;;;;;;36.33;18.67;;;;;;;;;;5032494;28;20487;-72
2021/12/09 00:08:21;;;;;;;35.33;18.38;;;;;;;;;;5032195;28;20120;-72
2021/12/09 00:10:47;;;;;;;30.98;16.25;;;;;;;;;;5032225;28;20487;-72
2021/12/09 00:13:13;;;;;;;32.50;17.42;;;;;;;;;;5033496;28;20033;-72
2021/12/09 00:15:39;;;;;;;33.25;16.95;;;;;;;;;;5033576;28;20024;-73
2021/12/09 00:18:05;;;;;;;29.15;16.45;;;;;;;;;;5033332;28;20352;-72
2021/12/09 00:20:31;;;;;;;31.48;18.77;;;;;;;;;;5033262;28;20021;-72
2021/12/09 00:22:57;;;;;;;33.95;17.88;;;;;;;;;;5033128;28;20025;-71
2021/12/09 00:25:23;;;;;;;34.42;17.83;;;;;;;;;;5033323;28;20036;-72
2021/12/09 00:27:51;;;;;;;34.22;18.67;;;;;;;;;;5033605;28;20104;-73
2021/12/09 00:30:18;;;;;;;31.20;17.08;;;;;;;;;;5033954;28;20040;-73
2021/12/09 00:32:44;;;;;;;32.92;17.35;;;;;;;;;;5034593;28;20116;-73
2021/12/09 00:35:14;;;;;;;31.55;18.05;;;;;;;;;;5035135;28;20045;-73
2021/12/09 00:37:51;;;;;;;34.00;18.23;;;;;;;;;;5033614;28;20021;-73
2021/12/09 00:40:18;;;;;;;35.75;19.00;;;;;;;;;;5032968;28;20026;-73
2021/12/09 00:42:43;;;;;;;33.60;18.70;;;;;;;;;;5033125;28;20113;-73
2021/12/09 00:45:09;;;;;;;35.58;19.45;;;;;;;;;;5033752;28;20057;-73
2021/12/09 00:47:35;;;;;;;35.40;18.50;;;;;;;;;;5032686;28;20034;-73
2021/12/09 00:50:01;;;;;;;33.35;19.27;;;;;;;;;;5033029;28;20432;-74
2021/12/09 00:52:27;;;;;;;31.83;17.88;;;;;;;;;;5032778;28;20069;-73
2021/12/09 00:54:54;;;;;;;34.30;18.48;;;;;;;;;;5032749;28;20025;-73
2021/12/09 00:57:20;;;;;;;34.08;18.67;;;;;;;;;;5032586;28;20048;-73
2021/12/09 00:59:47;;;;;;;33.13;18.25;;;;;;;;;;5031283;28;20064;-73
2021/12/09 01:02:13;;;;;;;34.20;17.98;;;;;;;;;;5032689;28;20100;-73
2021/12/09 01:04:39;;;;;;;35.90;19.52;;;;;;;;;;5032560;28;20030;-73
2021/12/09 01:07:06;;;;;;;32.63;17.58;;;;;;;;;;5032460;28;20044;-72
2021/12/09 01:09:32;;;;;;;31.20;17.27;;;;;;;;;;5032530;28;20021;-73
2021/12/09 01:11:58;;;;;;;29.73;17.48;;;;;;;;;;5032418;28;20033;-73
2021/12/09 01:14:24;;;;;;;36.80;19.45;;;;;;;;;;5032057;28;20028;-72
2021/12/09 01:16:50;;;;;;;32.88;18.05;;;;;;;;;;5032329;28;20025;-73
2021/12/09 01:19:17;;;;;;;38.30;19.15;;;;;;;;;;5031072;28;20017;-73
2021/12/09 01:21:43;;;;;;;34.15;17.15;;;;;;;;;;5032386;28;20032;-73
2021/12/09 01:24:09;;;;;;;36.63;18.17;;;;;;;;;;5032003;28;20051;-72
2021/12/09 01:26:35;;;;;;;33.08;17.58;;;;;;;;;;5032109;28;20025;-73
2021/12/09 01:29:08;;;;;;;30.88;16.98;;;;;;;;;;5031835;28;20096;-72
2021/12/09 01:31:37;;;;;;;32.92;18.52;;;;;;;;;;5032102;28;20045;-72
2021/12/09 01:34:04;;;;;;;33.15;16.65;;;;;;;;;;5031750;28;20041;-73
2021/12/09 01:36:31;;;;;;;28.08;16.33;;;;;;;;;;5031836;28;20018;-73
2021/12/09 01:38:58;;;;;;;33.05;18.52;;;;;;;;;;5030667;28;20025;-73
2021/12/09 01:41:24;;;;;;;36.80;18.98;;;;;;;;;;5030599;28;20029;-72
2021/12/09 01:43:50;;;;;;;38.83;19.65;;;;;;;;;;5031562;28;20087;-73
2021/12/09 01:46:18;;;;;;;41.17;19.92;;;;;;;;;;5030809;28;20029;-74
2021/12/09 01:48:46;;;;;;;41.85;20.00;;;;;;;;;;5030562;28;20506;-73
2021/12/09 01:51:12;;;;;;;39.78;20.02;;;;;;;;;;5031678;28;20029;-73
2021/12/09 01:53:38;;;;;;;41.03;19.58;;;;;;;;;;5030844;28;20064;-73
2021/12/09 01:56:07;;;;;;;42.97;20.67;;;;;;;;;;5031629;28;20025;-73
2021/12/09 01:58:34;;;;;;;43.80;21.10;;;;;;;;;;5031547;28;20079;-73
2021/12/09 02:01:00;;;;;;;46.08;20.42;;;;;;;;;;5031665;28;20550;-73
2021/12/09 02:03:26;;;;;;;47.22;22.58;;;;;;;;;;5031449;28;20049;-73
2021/12/09 02:05:52;;;;;;;47.13;21.80;;;;;;;;;;5031648;28;20025;-73
2021/12/09 02:08:18;;;;;;;41.65;20.13;;;;;;;;;;5031477;28;20053;-73
2021/12/09 02:10:45;;;;;;;47.05;23.00;;;;;;;;;;5031634;28;20037;-73
2021/12/09 02:13:12;;;;;;;47.65;22.70;;;;;;;;;;5031600;28;20379;-73
2021/12/09 02:15:39;;;;;;;51.25;23.08;;;;;;;;;;5031802;28;20519;-73
2021/12/09 02:18:06;;;;;;;43.05;21.55;;;;;;;;;;5031549;28;20105;-73
2021/12/09 02:20:34;;;;;;;50.05;25.05;;;;;;;;;;5031624;28;20442;-73
2021/12/09 02:23:00;;;;;;;49.13;24.88;;;;;;;;;;5031347;28;20053;-72
2021/12/09 02:25:26;;;;;;;50.35;23.30;;;;;;;;;;5030930;28;20120;-73
2021/12/09 02:27:52;;;;;;;47.55;23.15;;;;;;;;;;5032225;28;20060;-72
2021/12/09 02:30:19;;;;;;;53.95;25.55;;;;;;;;;;5031905;28;20044;-74
2021/12/09 02:32:46;;;;;;;59.00;26.15;;;;;;;;;;5031943;28;20075;-70
2021/12/09 02:35:13;;;;;;;53.10;25.27;;;;;;;;;;5031535;28;20112;-72
2021/12/09 02:37:38;;;;;;;58.80;26.92;;;;;;;;;;5031804;28;20030;-73
2021/12/09 02:40:06;;;;;;;53.63;24.60;;;;;;;;;;5030281;28;20029;-73
2021/12/09 02:42:32;;;;;;;54.60;26.23;;;;;;;;;;5031707;28;20451;-73
2021/12/09 02:44:59;;;;;;;58.90;26.92;;;;;;;;;;5029923;28;20117;-74
2021/12/09 02:47:26;;;;;;;57.60;27.45;;;;;;;;;;5031182;28;20063;-74
2021/12/09 02:49:52;;;;;;;52.08;24.60;;;;;;;;;;5029982;28;20112;-74
2021/12/09 02:52:19;;;;;;;54.83;25.10;;;;;;;;;;5031233;28;20026;-73
2021/12/09 02:54:45;;;;;;;56.95;26.02;;;;;;;;;;5031354;28;20028;-73
2021/12/09 02:59:41;;;;;;;53.30;26.67;;;;;;;;;;5064232;22;20041;-67
2021/12/09 03:02:07;;;;;;;53.75;26.58;;;;;;;;;;5051215;28;20036;-68
2021/12/09 03:04:39;;;;;;;59.03;27.90;;;;;;;;;;5052735;28;20520;-69
2021/12/09 03:07:06;;;;;;;53.60;24.80;;;;;;;;;;5054458;28;20098;-68
2021/12/09 03:09:32;;;;;;;50.70;24.52;;;;;;;;;;5054536;28;20048;-68
2021/12/09 03:12:04;;;;;;;53.85;25.33;;;;;;;;;;5054449;28;20021;-69
2021/12/09 03:14:30;;;;;;;52.83;25.42;;;;;;;;;;5054337;28;20016;-67
2021/12/09 03:16:56;;;;;;;53.67;25.27;;;;;;;;;;5054547;28;20375;-68
2021/12/09 03:19:22;;;;;;;57.42;24.95;;;;;;;;;;5054419;28;20435;-67
2021/12/09 03:21:48;;;;;;;54.80;26.80;;;;;;;;;;5054355;28;20497;-68
2021/12/09 03:24:16;;;;;;;54.33;25.95;;;;;;;;;;5054630;28;20112;-68
2021/12/09 03:26:48;;;;;;;54.80;26.73;;;;;;;;;;5054135;28;20024;-68
2021/12/09 03:29:16;;;;;;;55.63;25.25;;;;;;;;;;5052701;28;20032;-67
2021/12/09 03:31:44;;;;;;;53.33;25.25;;;;;;;;;;5054280;28;20104;-67
2021/12/09 03:34:11;;;;;;;55.90;26.83;;;;;;;;;;5052656;28;20025;-67
2021/12/09 03:36:37;;;;;;;51.50;26.08;;;;;;;;;;5054132;28;20025;-68
2021/12/09 03:39:05;;;;;;;45.95;22.80;;;;;;;;;;5054112;28;20113;-67
2021/12/09 03:41:31;;;;;;;52.80;26.17;;;;;;;;;;5054333;28;20029;-68
2021/12/09 03:43:57;;;;;;;49.53;25.33;;;;;;;;;;5053790;28;20052;-68
2021/12/09 03:46:24;;;;;;;51.10;24.13;;;;;;;;;;5054123;28;20025;-68
2021/12/09 03:48:50;;;;;;;51.63;24.70;;;;;;;;;;5052490;28;20108;-68
2021/12/09 03:51:16;;;;;;;50.67;24.83;;;;;;;;;;5054029;28;20099;-68
2021/12/09 03:53:42;;;;;;;49.63;24.85;;;;;;;;;;5053655;28;20031;-68
2021/12/09 03:56:08;;;;;;;46.67;23.65;;;;;;;;;;5053909;28;20025;-68
2021/12/09 03:58:34;;;;;;;50.28;24.33;;;;;;;;;;5053644;28;20380;-68
2021/12/09 04:01:00;;;;;;;45.22;24.13;;;;;;;;;;5047038;28;20099;-68
2021/12/09 04:03:26;;;;;;;47.25;24.65;;;;;;;;;;5033250;28;20407;-67
2021/12/09 04:05:52;;;;;;;50.25;24.55;;;;;;;;;;5035016;28;20021;-68
2021/12/09 04:08:20;;;;;;;46.33;24.13;;;;;;;;;;5053390;28;20051;-68
2021/12/09 04:10:46;;;;;;;49.35;23.58;;;;;;;;;;5051869;28;20031;-68
2021/12/09 04:13:12;;;;;;;50.10;23.98;;;;;;;;;;5053371;28;20017;-67
2021/12/09 04:15:38;;;;;;;46.45;24.08;;;;;;;;;;5052673;28;20092;-68
2021/12/09 04:18:04;;;;;;;50.78;24.02;;;;;;;;;;5053243;28;20025;-67
2021/12/09 04:20:30;;;;;;;48.00;22.80;;;;;;;;;;5051888;28;20025;-68
2021/12/09 04:22:56;;;;;;;47.78;24.58;;;;;;;;;;5051690;28;20025;-67
2021/12/09 04:25:23;;;;;;;46.00;22.42;;;;;;;;;;5052982;28;20083;-68
2021/12/09 04:27:50;;;;;;;46.00;22.48;;;;;;;;;;5052922;28;20055;-68
2021/12/09 04:30:17;;;;;;;49.72;23.20;;;;;;;;;;5053163;28;20041;-67
2021/12/09 04:32:44;;;;;;;45.33;21.98;;;;;;;;;;5052971;28;20025;-67
2021/12/09 04:35:11;;;;;;;48.63;23.17;;;;;;;;;;5052077;28;20459;-68
2021/12/09 04:37:38;;;;;;;42.65;22.00;;;;;;;;;;5051419;28;20080;-68
2021/12/09 04:40:05;;;;;;;46.60;23.63;;;;;;;;;;5051455;28;20033;-68
2021/12/09 04:42:31;;;;;;;41.72;22.08;;;;;;;;;;5052856;28;20068;-68
2021/12/09 04:44:57;;;;;;;47.25;23.63;;;;;;;;;;5052623;28;20060;-68
2021/12/09 04:47:23;;;;;;;46.20;22.77;;;;;;;;;;5052327;28;20037;-68
2021/12/09 04:49:49;;;;;;;48.38;23.00;;;;;;;;;;5052606;28;20111;-67
2021/12/09 04:52:15;;;;;;;45.88;21.98;;;;;;;;;;5052559;28;20021;-68
2021/12/09 04:54:41;;;;;;;44.63;22.38;;;;;;;;;;5052354;28;20490;-67
2021/12/09 04:57:08;;;;;;;43.88;21.98;;;;;;;;;;5051179;28;20020;-68
2021/12/09 04:59:34;;;;;;;46.90;24.05;;;;;;;;;;5052294;28;20581;-68
2021/12/09 05:02:00;;;;;;;47.90;21.88;;;;;;;;;;5051091;28;20034;-68
2021/12/09 05:04:27;;;;;;;47.45;23.27;;;;;;;;;;5052036;28;20025;-68
2021/12/09 05:06:53;;;;;;;53.63;23.55;;;;;;;;;;5052060;28;20126;-67
2021/12/09 05:09:19;;;;;;;51.78;23.52;;;;;;;;;;5052351;28;20482;-67
2021/12/09 05:14:12;;;;;;;43.70;22.08;;;;;;;;;;5052171;28;20471;-68
2021/12/09 05:16:39;;;;;;;49.75;23.73;;;;;;;;;;5051943;28;20104;-68
2021/12/09 05:19:06;;;;;;;45.85;21.98;;;;;;;;;;5051906;28;20467;-68
2021/12/09 05:21:36;;;;;;;45.40;22.50;;;;;;;;;;5051898;28;20025;-66
2021/12/09 05:24:06;;;;;;;51.95;24.13;;;;;;;;;;5051771;28;20021;-66
2021/12/09 05:26:39;;;;;;;51.75;23.48;;;;;;;;;;5051710;28;20482;-68
2021/12/09 05:29:05;;;;;;;47.60;23.27;;;;;;;;;;5051055;28;20478;-68
2021/12/09 05:34:16;;;;;;;43.88;22.48;;;;;;;;;;5051535;28;20032;-68
2021/12/09 05:36:42;;;;;;;56.70;25.23;;;;;;;;;;5051855;28;20029;-68
2021/12/09 05:39:10;;;;;;;47.47;23.08;;;;;;;;;;5051660;28;20079;-67
2021/12/09 05:41:37;;;;;;;46.85;23.38;;;;;;;;;;5052062;28;20033;-68
2021/12/09 05:44:04;;;;;;;46.63;23.38;;;;;;;;;;5051466;28;20021;-67
2021/12/09 05:46:32;;;;;;;44.42;23.75;;;;;;;;;;5051819;28;20104;-67
2021/12/09 05:48:58;;;;;;;48.42;22.60;;;;;;;;;;5051319;28;20028;-67
2021/12/09 05:51:25;;;;;;;44.35;23.40;;;;;;;;;;5051512;28;20489;-67
2021/12/09 05:53:51;;;;;;;49.00;22.65;;;;;;;;;;5051428;28;20052;-67
2021/12/09 05:56:18;;;;;;;41.28;22.17;;;;;;;;;;5051698;28;20025;-67
2021/12/09 05:58:45;;;;;;;47.13;25.02;;;;;;;;;;5051177;28;20044;-67
2021/12/09 06:01:11;;;;;;;52.45;24.80;;;;;;;;;;5051376;28;20082;-67
2021/12/09 06:03:37;;;;;;;51.45;24.30;;;;;;;;;;5051385;28;20029;-67
2021/12/09 06:06:03;;;;;;;49.78;24.52;;;;;;;;;;5051428;28;20099;-67
2021/12/09 06:08:29;;;;;;;45.63;23.85;;;;;;;;;;5051212;28;20405;-67
2021/12/09 06:10:55;;;;;;;49.13;23.35;;;;;;;;;;5051419;28;20501;-68
2021/12/09 06:13:26;;;;;;;49.10;24.48;;;;;;;;;;5051132;28;20108;-68
2021/12/09 06:15:52;;;;;;;49.38;25.45;;;;;;;;;;5051495;28;20018;-68
2021/12/09 06:18:19;;;;;;;46.60;22.50;;;;;;;;;;5049552;28;20087;-67
2021/12/09 06:20:45;;;;;;;45.47;22.75;;;;;;;;;;5051359;28;20478;-66
2021/12/09 06:23:11;;;;;;;52.38;24.05;;;;;;;;;;5051223;28;20090;-67
2021/12/09 06:25:37;;;;;;;45.75;23.50;;;;;;;;;;5051703;28;20463;-66
2021/12/09 06:28:03;;;;;;;47.30;23.30;;;;;;;;;;5050841;28;20482;-66
2021/12/09 06:30:29;;;;;;;45.03;23.63;;;;;;;;;;5051483;28;20451;-66
2021/12/09 06:32:55;;;;;;;47.47;22.83;;;;;;;;;;5051407;28;20057;-67
2021/12/09 06:35:21;;;;;;;43.45;23.02;;;;;;;;;;5051272;28;20024;-66
2021/12/09 06:37:48;;;;;;;44.78;24.15;;;;;;;;;;5051128;28;20044;-68
2021/12/09 06:40:16;;;;;;;50.45;25.02;;;;;;;;;;5053661;28;20104;-67
2021/12/09 06:42:43;;;;;;;48.75;24.83;;;;;;;;;;5054589;28;20025;-67
2021/12/09 06:45:09;;;;;;;48.38;23.73;;;;;;;;;;5054217;28;20033;-68
2021/12/09 06:47:35;;;;;;;48.88;24.77;;;;;;;;;;5054391;28;20052;-67
2021/12/09 06:50:01;;;;;;;54.25;25.17;;;;;;;;;;5054185;28;20487;-67
2021/12/09 06:52:30;;;;;;;50.03;23.65;;;;;;;;;;5054407;28;20021;-67
2021/12/09 06:54:56;;;;;;;53.17;25.17;;;;;;;;;;5054359;28;20021;-67
2021/12/09 06:57:22;;;;;;;47.33;23.65;;;;;;;;;;5053022;28;20501;-67
2021/12/09 06:59:48;;;;;;;51.00;26.55;;;;;;;;;;5054623;28;20470;-67
2021/12/09 07:02:13;;;;;;;47.58;24.65;;;;;;;;;;5054758;28;20032;-67
2021/12/09 07:04:39;;;;;;;48.47;23.90;;;;;;;;;;5054668;28;20489;-66
2021/12/09 07:07:06;;;;;;;53.08;24.95;;;;;;;;;;5054762;28;20033;-67
2021/12/09 07:09:32;;;;;;;43.55;23.92;;;;;;;;;;5054207;28;20017;-67
2021/12/09 07:11:58;;;;;;;52.85;26.27;;;;;;;;;;5054481;28;20604;-67
2021/12/09 07:14:24;;;;;;;49.78;23.40;;;;;;;;;;5054222;28;20371;-67
2021/12/09 07:16:50;;;;;;;50.50;23.98;;;;;;;;;;5054507;28;20025;-67
2021/12/09 07:19:16;;;;;;;45.83;23.55;;;;;;;;;;5054009;28;20470;-67
2021/12/09 07:21:42;;;;;;;52.17;25.05;;;;;;;;;;5054264;28;20024;-67
2021/12/09 07:24:08;;;;;;;49.38;25.23;;;;;;;;;;5054034;28;20498;-67
2021/12/09 07:26:34;;;;;;;44.85;23.95;;;;;;;;;;5054107;28;20064;-67
2021/12/09 07:29:00;;;;;;;52.30;25.23;;;;;;;;;;5053954;28;20053;-67
2021/12/09 07:31:27;;;;;;;49.90;26.42;;;;;;;;;;5054164;28;20022;-67
2021/12/09 07:33:55;;;;;;;52.35;25.85;;;;;;;;;;5053904;28;20021;-67
2021/12/09 07:36:21;;;;;;;46.10;25.27;;;;;;;;;;5053986;28;20483;-67
2021/12/09 07:38:48;;;;;;;51.38;26.17;;;;;;;;;;5054289;28;20029;-67
2021/12/09 07:41:14;;;;;;;49.58;25.02;;;;;;;;;;5053978;28;20057;-67
2021/12/09 07:43:40;;;;;;;44.20;24.67;;;;;;;;;;5053931;28;20040;-67
2021/12/09 07:46:06;;;;;;;47.60;26.05;;;;;;;;;;5053989;28;20106;-68
2021/12/09 07:48:32;;;;;;;49.95;25.63;;;;;;;;;;5053737;28;20099;-67
2021/12/09 07:50:58;;;;;;;50.13;25.42;;;;;;;;;;5052803;28;20052;-68
2021/12/09 07:53:25;;;;;;;52.05;26.83;;;;;;;;;;5053337;28;20430;-68
2021/12/09 07:55:51;;;;;;;51.50;26.67;;;;;;;;;;5053759;28;20021;-68
2021/12/09 07:58:18;;;;;;;48.28;25.55;;;;;;;;;;5053468;28;20494;-68
2021/12/09 08:00:44;;;;;;;56.10;28.23;;;;;;;;;;5053701;28;20039;-67
2021/12/09 08:03:10;;;;;;;48.15;26.27;;;;;;;;;;5053234;28;20029;-66
2021/12/09 08:05:38;;;;;;;52.22;27.15;;;;;;;;;;5053648;28;20084;-67
2021/12/09 08:08:05;;;;;;;52.83;27.80;;;;;;;;;;5053261;28;20025;-67
2021/12/09 08:10:32;;;;;;;49.15;26.30;;;;;;;;;;5053596;28;20118;-66
2021/12/09 08:12:59;;;;;;;51.20;26.95;;;;;;;;;;5053104;28;20149;-67
2021/12/09 08:15:26;;;;;;;52.45;26.40;;;;;;;;;;5053200;28;20053;-67
2021/12/09 08:20:37;;;;;;;54.95;27.33;;;;;;;;;;5053249;28;20040;-67
2021/12/09 08:23:03;;;;;;;52.85;27.48;;;;;;;;;;5053137;28;20100;-67
2021/12/09 08:25:29;;;;;;;55.88;28.52;;;;;;;;;;5053293;28;20060;-67
2021/12/09 08:27:55;;;;;;;56.70;28.88;;;;;;;;;;5051677;28;20135;-67
2021/12/09 08:30:25;;;;;;;61.33;31.17;;;;;;;;;;5052948;28;20021;-67
2021/12/09 08:32:51;;;;;;;55.00;30.30;;;;;;;;;;5052698;28;20021;-66
2021/12/09 08:35:17;;;;;;;62.92;32.13;;;;;;;;;;5052768;28;20025;-67
2021/12/09 08:37:44;;;;;;;65.05;31.80;;;;;;;;;;5053031;28;20047;-67
2021/12/09 08:40:11;;;;;;;65.72;33.03;;;;;;;;;;5052820;28;20501;-67
2021/12/09 08:42:37;;;;;;;60.67;32.20;;;;;;;;;;5052809;28;20061;-67
2021/12/09 08:45:06;;;;;;;63.78;34.55;;;;;;;;;;5052471;28;20036;-67
2021/12/09 08:47:32;;;;;;;59.70;32.83;;;;;;;;;;5050984;28;20512;-67
2021/12/09 08:49:58;;;;;;;63.40;31.60;;;;;;;;;;5052442;28;20448;-67
2021/12/09 08:52:24;;;;;;;60.58;31.10;;;;;;;;;;5052611;28;20017;-67
2021/12/09 08:54:49;;;;;;;57.47;32.47;;;;;;;;;;5052163;28;20084;-67
2021/12/09 08:57:15;;;;;;;60.75;30.73;;;;;;;;;;5052455;28;20021;-67
2021/12/09 08:59:41;;;;;;;54.55;30.35;;;;;;;;;;5066230;22;20049;-73
2021/12/09 09:02:08;;;;;;;66.38;31.27;;;;;;;;;;5052072;28;20475;-72
2021/12/09 09:04:34;;;;;;;58.65;31.27;;;;;;;;;;5051948;28;20033;-73
2021/12/09 09:07:01;;;;;;;62.30;32.75;;;;;;;;;;5052933;28;20024;-72
2021/12/09 09:09:33;;;;;;;60.60;31.40;;;;;;;;;;5052166;28;20036;-72
2021/12/09 09:11:59;;;;;;;56.40;30.33;;;;;;;;;;5052302;28;20478;-72
2021/12/09 09:14:25;;;;;;;57.35;30.90;;;;;;;;;;5050425;28;20020;-70
2021/12/09 09:16:51;;;;;;;58.33;31.23;;;;;;;;;;5052094;28;20554;-73
2021/12/09 09:19:17;;;;;;;64.32;33.60;;;;;;;;;;5051814;28;20427;-71
2021/12/09 09:21:43;;;;;;;66.28;34.28;;;;;;;;;;5051373;28;20021;-70
2021/12/09 09:24:09;;;;;;;58.25;31.95;;;;;;;;;;5043211;28;20025;-70
2021/12/09 09:26:35;;;;;;;62.25;33.47;;;;;;;;;;5050963;28;20079;-73
2021/12/09 09:29:01;;;;;;;90.88;46.47;;;;;;;;;;5050050;28;20025;-72
2021/12/09 09:31:30;;;;;;;79.50;39.78;;;;;;;;;;5051832;28;20032;-71
2021/12/09 09:33:57;;;;;;;64.00;32.42;;;;;;;;;;5051676;28;20432;-72
2021/12/09 09:36:23;;;;;;;63.20;33.72;;;;;;;;;;5051868;28;20387;-71
2021/12/09 09:38:52;;;;;;;61.90;31.90;;;;;;;;;;5050473;28;20025;-72
2021/12/09 09:41:18;;;;;;;69.18;37.55;;;;;;;;;;5051742;28;20025;-69
2021/12/09 09:46:19;;;;;;;60.05;32.25;;;;;;;;;;5052061;28;20060;-72
2021/12/09 09:48:45;;;;;;;83.32;41.90;;;;;;;;;;5050250;28;20032;-72
2021/12/09 09:51:12;;;;;;;76.50;38.72;;;;;;;;;;5051934;28;20029;-71
2021/12/09 09:53:41;;;;;;;164.82;75.10;;;;;;;;;;5050096;28;20027;-70
2021/12/09 09:56:14;;;;;;;64.72;35.58;;;;;;;;;;5051444;28;20021;-72
2021/12/09 09:58:41;;;;;;;59.65;31.70;;;;;;;;;;5051372;28;20035;-70
2021/12/09 10:01:07;;;;;;;73.03;35.33;;;;;;;;;;5051740;28;20025;-72
2021/12/09 10:03:40;;;;;;;101.80;50.67;;;;;;;;;;5051531;28;20025;-72
2021/12/09 10:06:06;;;;;;;60.28;31.85;;;;;;;;;;5048456;28;20032;-73
2021/12/09 10:08:32;;;;;;;57.70;30.67;;;;;;;;;;5049914;28;20034;-72
2021/12/09 10:10:59;;;;;;;58.28;31.45;;;;;;;;;;5048817;28;20025;-69
2021/12/09 10:13:29;;;;;;;53.38;30.35;;;;;;;;;;5051328;28;20386;-71
2021/12/09 10:15:55;;;;;;;50.80;27.73;;;;;;;;;;5054112;28;20070;-71
2021/12/09 10:18:33;;;;;;;58.83;31.52;;;;;;;;;;5055008;28;20040;-72
2021/12/09 10:20:59;;;;;;;56.95;30.27;;;;;;;;;;5053671;28;20025;-72
2021/12/09 10:23:42;;;;;;;86.30;44.45;;;;;;;;;;5055239;28;20119;-74
2021/12/09 10:26:17;;;;;;;58.35;31.40;;;;;;;;;;5055319;28;20024;-74
2021/12/09 10:28:52;;;;;;;66.03;33.05;;;;;;;;;;5055193;28;20098;-72
2021/12/09 10:31:20;;;;;;;54.38;30.30;;;;;;;;;;5055160;28;20029;-75
2021/12/09 10:34:28;;;;;;;59.40;31.27;;;;;;;;;;5053630;28;20098;-71
2021/12/09 10:37:06;;;;;;;53.45;29.33;;;;;;;;;;5055475;28;20025;-73
2021/12/09 10:39:34;;;;;;;54.70;30.45;;;;;;;;;;5054965;28;20028;-72
2021/12/09 10:42:01;;;;;;;56.03;30.92;;;;;;;;;;5053802;28;20410;-73
2021/12/09 10:44:38;;;;;;;55.67;31.50;;;;;;;;;;5054738;28;20099;-74
2021/12/09 10:47:09;;;;;;;60.78;33.22;;;;;;;;;;5055148;28;20437;-74
2021/12/09 10:49:50;;;;;;;54.90;30.58;;;;;;;;;;5055541;28;20382;-73
2021/12/09 10:52:20;;;;;;;55.90;30.50;;;;;;;;;;5055104;28;20029;-74
2021/12/09 10:54:46;;;;;;;58.17;32.47;;;;;;;;;;5054599;28;20483;-74
2021/12/09 10:57:25;;;;;;;56.33;29.85;;;;;;;;;;5053326;28;20066;-74
2021/12/09 10:59:51;;;;;;;62.85;32.55;;;;;;;;;;5052209;28;20065;-74
2021/12/09 11:02:17;;;;;;;47.20;28.60;;;;;;;;;;5052324;28;20021;-74
2021/12/09 11:05:00;;;;;;;51.72;30.58;;;;;;;;;;5053240;28;20538;-73
2021/12/09 11:07:31;;;;;;;51.30;27.98;;;;;;;;;;5053376;28;20025;-73
2021/12/09 11:10:16;;;;;;;52.80;30.33;;;;;;;;;;5053121;28;20475;-74
2021/12/09 11:12:51;;;;;;;50.80;28.52;;;;;;;;;;5052869;28;20444;-74
2021/12/09 11:15:19;;;;;;;56.10;30.30;;;;;;;;;;5041060;28;20017;-74
2021/12/09 11:17:51;;;;;;;50.35;29.40;;;;;;;;;;5052987;28;20075;-74
2021/12/09 11:20:36;;;;;;;50.92;28.60;;;;;;;;;;5053414;28;20028;-74
2021/12/09 11:23:21;;;;;;;45.78;26.67;;;;;;;;;;5045591;28;20120;-73
2021/12/09 11:25:47;;;;;;;48.53;27.67;;;;;;;;;;5031916;28;20025;-74
2021/12/09 11:28:13;;;;;;;46.15;26.63;;;;;;;;;;5032914;28;20104;-74
2021/12/09 11:31:03;;;;;;;47.78;27.85;;;;;;;;;;5031794;28;20024;-74
2021/12/09 11:33:31;;;;;;;49.20;28.73;;;;;;;;;;5033118;28;20538;-70
2021/12/09 11:35:57;;;;;;;48.88;28.08;;;;;;;;;;5033334;28;20327;-72
2021/12/09 11:38:53;;;;;;;48.53;28.33;;;;;;;;;;5039062;28;20497;-69
2021/12/09 11:41:34;;;;;;;55.88;30.35;;;;;;;;;;5052319;28;20023;-74
2021/12/09 11:44:00;;;;;;;50.83;30.15;;;;;;;;;;5052644;28;20025;-74
2021/12/09 11:46:26;;;;;;;56.42;31.83;;;;;;;;;;5053302;28;20025;-79
2021/12/09 11:48:52;;;;;;;51.10;29.70;;;;;;;;;;5050986;28;20036;-73
2021/12/09 11:51:18;;;;;;;54.00;30.23;;;;;;;;;;5051584;28;20017;-72
2021/12/09 11:53:45;;;;;;;56.25;29.80;;;;;;;;;;5052552;28;20021;-74
2021/12/09 11:56:32;;;;;;;49.08;28.30;;;;;;;;;;5053883;28;20021;-74
2021/12/09 12:12:56;;;;;;;67.97;36.92;;;;;;;;;;5053573;28;20031;-73
2021/12/09 12:15:34;;;;;;;53.70;30.10;;;;;;;;;;5053225;28;20021;-74
2021/12/09 12:21:18;;;;;;;56.58;31.35;;;;;;;;;;5045974;28;20036;-73
2021/12/09 12:32:35;;;;;;;50.72;29.40;;;;;;;;;;5032789;28;20055;-72
2021/12/09 12:40:17;;;;;;;56.45;28.13;;;;;;;;;;5033100;28;20463;-74
2021/12/09 12:42:56;;;;;;;49.17;28.25;;;;;;;;;;5032687;28;20406;-73
2021/12/09 12:50:33;;;;;;;50.25;28.58;;;;;;;;;;5032850;28;20071;-72
2021/12/09 12:53:18;;;;;;;48.30;29.38;;;;;;;;;;5031237;28;20052;-72
2021/12/09 12:56:04;;;;;;;48.33;26.27;;;;;;;;;;5032473;28;20022;-72
2021/12/09 12:58:30;;;;;;;47.55;27.60;;;;;;;;;;5032370;28;20040;-75
2021/12/09 13:01:13;;;;;;;45.42;25.90;;;;;;;;;;5032892;28;20029;-77
2021/12/09 13:03:45;;;;;;;45.92;26.13;;;;;;;;;;5032363;28;20499;-77
2021/12/09 13:06:15;;;;;;;46.08;26.30;;;;;;;;;;5033798;28;20032;-77
2021/12/09 13:11:22;;;;;;;46.17;25.88;;;;;;;;;;5033503;28;20025;-76
2021/12/09 13:14:00;;;;;;;51.35;27.92;;;;;;;;;;5033373;28;20025;-76
2021/12/09 13:19:04;;;;;;;;;;;;;;;;;;;;;
2021/12/09 13:21:39;;;;;;;46.17;26.27;;;;;;;;;;5032245;28;20275;-76
2021/12/09 13:24:21;;;;;;;47.25;27.25;;;;;;;;;;5031752;28;20026;-73
2021/12/09 13:27:30;;;;;;;48.45;27.20;;;;;;;;;;5031809;28;20483;-70
2021/12/09 13:35:44;;;;;;;50.15;27.27;;;;;;;;;;4990133;28;20030;-75
2021/12/09 13:49:00;;;;;;;51.90;27.55;;;;;;;;;;5032194;28;20332;-75
2021/12/09 13:56:44;;;;;;;49.83;27.38;;;;;;;;;;5033002;28;20084;-74
2021/12/09 13:59:17;;;;;;;48.17;26.58;;;;;;;;;;5035249;28;20327;-72
2021/12/09 14:01:45;;;;;;;49.30;26.20;;;;;;;;;;5031546;28;20029;-74
2021/12/09 14:04:11;;;;;;;50.15;27.77;;;;;;;;;;5031103;28;20030;-72
2021/12/09 14:06:38;;;;;;;52.35;28.50;;;;;;;;;;5031326;28;20402;-74
2021/12/09 14:09:05;;;;;;;49.10;24.60;;;;;;;;;;5032531;28;20029;-77
2021/12/09 14:11:35;;;;;;;51.60;26.95;;;;;;;;;;5031557;28;20048;-74
2021/12/09 14:14:07;;;;;;;55.92;26.80;;;;;;;;;;5031646;28;20033;-74
2021/12/09 14:16:41;;;;;;;51.60;26.25;;;;;;;;;;5031229;28;20021;-74
2021/12/09 14:21:39;;;;;;;49.53;27.30;;;;;;;;;;5031621;28;20099;-76
2021/12/09 14:24:16;;;;;;;54.92;27.95;;;;;;;;;;5031140;28;20028;-74
2021/12/09 14:26:48;;;;;;;60.88;30.17;;;;;;;;;;5031414;28;20490;-74
2021/12/09 14:29:14;;;;;;;68.60;30.33;;;;;;;;;;5030949;28;20037;-75
2021/12/09 14:31:42;;;;;;;76.28;33.70;;;;;;;;;;5049525;28;20072;-72
2021/12/09 14:34:09;;;;;;;66.82;30.10;;;;;;;;;;5051127;28;20162;-74
2021/12/09 14:36:35;;;;;;;63.80;31.10;;;;;;;;;;5049841;28;20059;-73
2021/12/09 14:39:03;;;;;;;71.07;29.25;;;;;;;;;;5050975;28;20044;-75
2021/12/09 14:41:30;;;;;;;74.10;30.05;;;;;;;;;;5050613;28;20021;-74
2021/12/09 14:43:56;;;;;;;72.30;30.73;;;;;;;;;;5050922;28;20032;-77
2021/12/09 14:46:27;;;;;;;75.93;31.92;;;;;;;;;;5051703;28;20051;-77
2021/12/09 14:48:53;;;;;;;78.22;31.08;;;;;;;;;;5050955;28;20013;-76
2021/12/09 14:51:19;;;;;;;80.57;33.00;;;;;;;;;;5050832;28;20031;-73
2021/12/09 14:53:48;;;;;;;88.05;33.92;;;;;;;;;;5050759;28;20021;-76
2021/12/09 14:56:22;;;;;;;86.72;35.22;;;;;;;;;;5050809;28;20057;-75
2021/12/09 14:58:48;;;;;;;77.93;34.33;;;;;;;;;;5069948;22;20049;-71
2021/12/09 15:01:18;;;;;;;80.13;33.88;;;;;;;;;;5054207;28;20047;-70
2021/12/09 15:03:54;;;;;;;93.97;35.22;;;;;;;;;;5054604;28;20108;-69
2021/12/09 15:06:25;;;;;;;89.63;34.60;;;;;;;;;;5053553;28;20028;-71
2021/12/09 15:08:56;;;;;;;87.80;33.50;;;;;;;;;;5054482;28;20036;-67
2021/12/09 15:11:22;;;;;;;90.65;34.70;;;;;;;;;;5048768;28;20132;-71
2021/12/09 15:13:49;;;;;;;91.25;34.33;;;;;;;;;;5045296;28;20024;-72
2021/12/09 15:16:23;;;;;;;93.93;37.10;;;;;;;;;;5044646;28;20021;-70
2021/12/09 15:18:49;;;;;;;95.68;35.20;;;;;;;;;;5036212;28;20065;-69
2021/12/09 15:21:17;;;;;;;94.10;37.17;;;;;;;;;;5048164;28;20534;-72
2021/12/09 15:23:45;;;;;;;104.45;37.08;;;;;;;;;;5040004;28;20116;-71
2021/12/09 15:26:20;;;;;;;100.93;37.15;;;;;;;;;;5049193;28;20028;-71
2021/12/09 15:28:47;;;;;;;96.15;35.63;;;;;;;;;;5049693;28;20117;-71
2021/12/09 15:31:20;;;;;;;102.85;36.30;;;;;;;;;;5045254;28;20044;-72
2021/12/09 15:33:50;;;;;;;103.85;36.83;;;;;;;;;;5045922;28;20108;-73
2021/12/09 15:36:16;;;;;;;102.60;37.03;;;;;;;;;;5040224;28;20033;-69
2021/12/09 15:38:44;;;;;;;95.47;36.58;;;;;;;;;;5041068;28;20017;-70
2021/12/09 15:41:10;;;;;;;99.50;35.47;;;;;;;;;;5047909;28;20025;-69
2021/12/09 15:43:37;;;;;;;97.80;35.10;;;;;;;;;;5038937;28;20268;-73